Latest Coastal Weather Observations for Adelaide Airport

IDS60701

Issued at 12:05 pm CST Saturday 19 April 2014 (issued every 10 minutes, with the page automatically refreshed every 10 minutes)

About coastal observations | Map of coastal stations | Coastal observations for SA | Marine services | Other Formats
Station Details ID: 023034 Name: ADELAIDE AIRPORT Lat: -34.95 Lon: 138.52 Height: 2.0 m
Data from the previous 72 hours. | See also: Recent months at Adelaide Airport
Date/Time
CST
Temp

°C
Wind Pressure Rain
since 9am
mm
Weather Cloud Vis
km
Sea
Height
m
Swell
Dir
 
Speed
knots
Gust
knots
hPa Trend Height
m
Period
s
Dir
19/12:00pm 18.1 N 5 9 1021.3 F 0.0 Fine Mostly cloudy 30 - - - -
19/11:30am 17.7 S 5 7 1021.7 - 0.0 - Mostly clear 10 - - - -
19/11:00am 17.6 NE 6 10 1022.0 - 0.0 - Mostly clear 10 - - - -
19/10:30am 17.2 NE 9 11 1022.3 - 0.0 - Mostly clear 10 - - - -
19/10:00am 16.8 NNE 11 14 1022.7 - 0.0 - Mostly clear 10 - - - -
19/09:30am 15.8 NE 11 14 1022.9 - 0.0 - Mostly clear 10 - - - -
19/09:00am 14.6 NNE 11 14 1023.1 F 0.0 Fine Mostly cloudy 25 - - - -
19/08:30am 13.7 NNE 8 10 1023.1 - 0.0 - Mostly clear 10 - - - -
19/08:00am 13.3 NNE 9 11 1022.9 - 0.0 - Mostly clear 10 - - - -
19/07:30am 12.9 NNE 10 12 1022.6 - 0.0 - Mostly clear 10 - - - -
19/07:00am 12.3 NNE 7 9 1022.5 - 0.0 - Mostly clear 10 - - - -
19/06:30am 12.2 ENE 5 6 1022.6 - 0.0 - Mostly clear 10 - - - -
19/06:00am 11.3 NE 6 7 1022.5 F 0.0 Fine Mostly cloudy 20 - - - -
19/05:30am 11.0 NNE 5 6 1022.3 - 0.0 - Mostly cloudy 10 - - - -
19/05:00am 11.1 NE 3 4 1022.3 - 0.0 - Mostly cloudy 10 - - - -
19/04:30am 10.8 NE 4 5 1022.0 - 0.0 - Cloudy 10 - - - -
19/04:00am 10.4 E 4 5 1022.1 - 0.0 - Cloudy 10 - - - -
19/03:30am 9.9 NE 5 5 1022.2 - 0.0 - Cloudy 10 - - - -
19/03:00am 9.9 NE 5 6 1022.1 F 0.0 Fine Partly cloudy 25 - - - -
19/02:30am 11.0 CALM 0 2 1022.4 - 0.0 - Partly cloudy 10 - - - -
19/02:00am 11.4 NE 4 4 1022.7 - 0.0 - Cloudy 10 - - - -
19/01:30am 12.0 NE 5 5 1022.9 - 0.0 - Cloudy 10 - - - -
19/01:00am 11.9 CALM 0 3 1023.1 - 0.0 - Cloudy 10 - - - -
19/12:30am 11.3 NNE 2 4 1023.1 - 0.0 - Mostly clear 10 - - - -
19/12:00am 10.9 ENE 0 0 1023.1 F 0.0 Fine Mostly cloudy 20 - - - -
 
Date/Time
CST
Temp

°C
Wind Pressure Rain
since 9am
mm
Weather Cloud Vis
km
Sea
Height
m
Swell
Dir
 
Speed
knots
Gust
knots
hPa Trend Height
m
Period
s
Dir
18/11:30pm 10.6 CALM 0 0 1023.3 - 0.0 - Cloudy 10 - - - -
18/11:00pm 10.2 CALM 0 0 1023.4 - 0.0 - Partly cloudy 10 - - - -
18/10:30pm 9.9 E 3 3 1023.5 - 0.0 - - 10 - - - -
18/10:00pm 11.3 SE 3 4 1023.6 - 0.0 - - 10 - - - -
18/09:30pm 11.0 SE 4 4 1023.7 - 0.0 - - 10 - - - -
18/09:00pm 12.0 ESE 4 4 1023.7 S 0.0 Fine Mostly clear 30 - - - -
18/08:30pm 12.3 SSE 4 5 1023.6 - 0.0 - - 10 - - - -
18/08:00pm 13.4 SSE 4 4 1023.5 - 0.0 - - 10 - - - -
18/07:30pm 13.7 SE 5 6 1023.3 - 0.0 - - 10 - - - -
18/07:00pm 14.4 SSE 7 8 1023.1 - 0.0 - - 10 - - - -
18/06:30pm 15.4 SSE 10 13 1022.8 - 0.0 - Mostly clear 10 - - - -
18/06:00pm 16.2 SSE 10 14 1022.7 R 0.0 Fine Mostly clear 30 - - - -
18/05:30pm 17.2 SSE 9 13 1022.4 - 0.0 - Mostly clear 10 - - - -
18/05:00pm 18.1 S 13 18 1022.2 - 0.0 - Mostly clear 10 - - - -
18/04:30pm 18.6 SSW 15 21 1022.0 - 0.0 - Mostly clear 10 - - - -
18/04:00pm 19.2 SSW 16 22 1021.8 - 0.0 - Mostly clear 10 - - - -
18/03:30pm 19.5 SW 16 20 1021.6 - 0.0 - Mostly clear 10 - - - -
18/03:00pm 19.4 SW 18 22 1021.5 R 0.0 Fine Mostly clear 30 - - - -
18/02:30pm 19.5 SW 16 22 1021.4 - 0.0 - Mostly clear 10 - - - -
18/02:00pm 19.6 SW 17 21 1021.4 - 0.0 - Mostly clear 10 - - - -
18/01:30pm 19.3 SW 17 20 1021.2 - 0.0 - Mostly clear 10 - - - -
18/01:00pm 19.9 SW 16 20 1021.5 - 0.0 - Mostly clear 10 - - - -
18/12:30pm 19.8 SW 16 22 1021.8 - 0.0 - Mostly clear 10 - - - -
18/12:00pm 19.7 SW 17 20 1022.0 R 0.0 Fine Mostly clear 25 - - - -
18/11:30am 20.0 SSW 15 21 1021.9 - 0.0 - Mostly clear 10 - - - -
18/11:00am 19.5 SSW 14 18 1021.9 - 0.0 - Partly cloudy 10 - - - -
18/10:30am 19.2 SSW 12 16 1022.0 - 0.0 - Mostly clear 10 - - - -
18/10:00am 19.1 SSW 13 19 1022.0 - 0.0 - Mostly clear 10 - - - -
18/09:30am 18.7 SSW 12 16 1021.7 - 0.0 - Mostly clear 10 - - - -
18/09:00am 18.3 S 11 15 1021.5 R 0.2 Fine Partly cloudy 20 - - - -
18/08:30am 17.9 S 10 16 1021.1 - 0.2 - Mostly clear 10 - - - -
18/08:00am 16.9 SSW 9 14 1020.6 - 0.2 - Mostly clear 10 - - - -
18/07:42am 16.5 SSW 12 18 1020.5 - 0.0 Showers Mostly clear 9 - - - -
18/07:30am 16.0 SSW 14 21 1020.5 - 0.0 Showers Mostly clear 6 - - - -
18/07:16am 17.0 W 16 26 1020.3 - 0.0 Showers Mostly clear 3 - - - -
18/07:00am 18.5 W 13 17 1019.8 - 0.0 - Mostly clear 10 - - - -
18/06:30am 18.4 W 13 16 1019.5 - 0.0 - Mostly clear 10 - - - -
18/06:00am 18.2 W 15 19 1019.6 F 0.0 Distant precip. Cloudy 15 - - - -
18/05:30am 18.1 W 15 20 1019.6 - 0.0 - Mostly clear 10 - - - -
18/05:00am 17.7 W 13 16 1019.5 - 0.0 - Mostly clear 10 - - - -
18/04:30am 17.7 W 13 17 1019.3 - 0.0 - Mostly clear 10 - - - -
18/04:00am 17.6 W 12 16 1019.0 - 0.0 - Mostly clear 10 - - - -
18/03:30am 17.9 W 15 20 1019.1 - 0.0 - Mostly clear 10 - - - -
18/03:00am 17.8 W 15 18 1019.1 R 0.0 Fine Partly cloudy 20 - - - -
18/02:30am 17.8 WSW 15 19 1019.2 - 0.0 - Mostly clear 10 - - - -
18/02:00am 18.3 W 15 18 1019.1 - 0.0 - Mostly clear 10 - - - -
18/01:30am 18.5 W 15 20 1019.3 - 0.0 - Mostly clear 10 - - - -
18/01:00am 19.0 W 12 17 1019.0 - 0.0 - Mostly cloudy 10 - - - -
18/12:30am 18.8 WNW 9 13 1019.0 - 0.0 - - 10 - - - -
18/12:00am 18.9 W 9 11 1019.1 F 0.0 Fine Cloudy 25 - - - -
 
Date/Time
CST
Temp

°C
Wind Pressure Rain
since 9am
mm
Weather Cloud Vis
km
Sea
Height
m
Swell
Dir
 
Speed
knots
Gust
knots
hPa Trend Height
m
Period
s
Dir
17/11:30pm 18.9 WNW 8 11 1019.4 - 0.0 - - 10 - - - -
17/11:00pm 19.3 W 11 14 1019.7 - 0.0 - - 10 - - - -
17/10:30pm 19.5 WNW 9 13 1019.9 - 0.0 - - 10 - - - -
17/10:00pm 18.2 NW 6 8 1020.0 - 0.0 - - 10 - - - -
17/09:30pm 16.4 NE 4 5 1019.9 - 0.0 - - 10 - - - -
17/09:00pm 15.9 NE 5 5 1019.7 F 0.0 Fine Mostly cloudy 25 - - - -
17/08:30pm 17.8 N 3 4 1019.5 - 0.0 - - 10 - - - -
17/08:00pm 17.9 NE 4 5 1019.2 - 0.0 - - 10 - - - -
17/07:30pm 18.8 NNE 4 5 1019.1 - 0.0 - - 10 - - - -
17/07:00pm 18.7 NE 4 5 1019.0 - 0.0 - - 10 - - - -
17/06:30pm 18.6 N 4 5 1018.9 - 0.0 - - 10 - - - -
17/06:00pm 19.5 NNW 5 6 1019.0 F 0.0 Fine Mostly cloudy 30 - - - -
17/05:30pm 20.7 NNW 4 5 1018.8 - 0.0 - Mostly clear 10 - - - -
17/05:00pm 21.5 NW 5 7 1018.8 - 0.0 - Mostly clear 10 - - - -
17/04:30pm 22.2 WNW 6 9 1019.0 - 0.0 - Mostly clear 10 - - - -
17/04:00pm 22.7 NW 6 8 1018.8 - 0.0 - Mostly clear 10 - - - -
17/03:30pm 22.2 WNW 5 8 1019.1 - 0.0 - Mostly clear 10 - - - -
17/03:00pm 21.3 W 8 12 1019.5 F 0.0 Fine Partly cloudy 30 - - - -
17/02:30pm 22.2 WSW 5 8 1019.4 - 0.0 - Mostly clear 10 - - - -
17/02:00pm 21.5 WSW 5 7 1019.9 - 0.0 - Mostly clear 10 - - - -
17/01:30pm 21.4 NW 4 6 1020.1 - 0.0 - Mostly clear 10 - - - -
17/01:00pm 20.4 W 6 8 1020.6 - 0.0 - Mostly clear 10 - - - -
17/12:30pm 20.0 W 8 11 1021.2 - 0.0 - Mostly clear 10 - - - -
17/12:00pm 20.2 W 8 10 1021.6 R 0.0 Fine Mostly cloudy 30 - - - -
17/11:30am 19.8 W 8 11 1021.9 - 0.0 - Mostly clear 10 - - - -
17/11:00am 19.8 W 7 11 1021.9 - 0.0 - Mostly clear 10 - - - -
17/10:30am 19.3 N 5 7 1021.7 - 0.0 - Mostly clear 10 - - - -
17/10:00am 19.4 N 6 8 1021.7 - 0.0 - Mostly clear 10 - - - -
17/09:30am 18.4 NNE 7 9 1021.7 - 0.0 - Mostly clear 10 - - - -
17/09:00am 18.3 NNE 7 9 1021.7 F 0.0 Fine Partly cloudy 25 - - - -
17/08:30am 16.7 N 9 11 1021.4 - 0.0 - Mostly clear 10 - - - -
17/08:00am 15.5 NNE 8 10 1021.4 - 0.0 - Mostly clear 10 - - - -
17/07:30am 14.3 NE 6 8 1021.1 - 0.0 - Mostly clear 10 - - - -
17/07:00am 12.4 NNE 7 8 1021.0 - 0.0 - Partly cloudy 10 - - - -
17/06:30am 12.0 NE 7 8 1020.7 - 0.0 - Mostly clear 10 - - - -
17/06:00am 10.5 ENE 4 5 1020.6 F 0.0 Fine Partly cloudy 30 - - - -
17/05:30am 10.9 NE 5 6 1020.4 - 0.0 - Mostly clear 10 - - - -
17/05:00am 11.4 NE 4 5 1020.4 - 0.0 - Mostly clear 10 - - - -
17/04:30am 11.1 NNE 5 5 1020.2 - 0.0 - Mostly clear 10 - - - -
17/04:00am 11.4 NE 5 6 1019.9 - 0.0 - Mostly clear 10 - - - -
17/03:30am 11.6 NE 6 6 1019.9 - 0.0 - Mostly clear 10 - - - -
17/03:00am 11.5 ENE 3 4 1020.0 R 0.0 Fine Mostly clear 30 - - - -
17/02:30am 11.2 NE 5 6 1020.1 - 0.0 - Mostly clear 10 - - - -
17/02:00am 11.3 NE 5 6 1020.3 - 0.0 - Mostly clear 10 - - - -
17/01:30am 11.7 NE 5 6 1020.4 - 0.0 - Mostly clear 10 - - - -
17/01:00am 11.8 CALM 0 0 1020.3 - 0.0 - - 10 - - - -
17/12:30am 12.3 E 4 4 1020.3 - 0.0 - - 10 - - - -
17/12:00am 12.5 E 3 4 1020.3 R 0.0 Fine Clear 30 - - - -
 
Date/Time
CST
Temp

°C
Wind Pressure Rain
since 9am
mm
Weather Cloud Vis
km
Sea
Height
m
Swell
Dir
 
Speed
knots
Gust
knots
hPa Trend Height
m
Period
s
Dir
16/11:30pm 12.5 ESE 4 4 1020.5 - 0.0 - - 10 - - - -
16/11:00pm 13.1 CALM 0 0 1020.5 - 0.0 - - 10 - - - -
16/10:30pm 14.0 CALM 0 0 1020.6 - 0.0 - - 10 - - - -
16/10:00pm 14.1 CALM 0 0 1020.5 - 0.0 - - 10 - - - -
16/09:30pm 14.5 E 3 4 1020.3 - 0.0 - - 10 - - - -
16/09:00pm 15.0 ESE 5 6 1020.1 F 0.0 Fine Mostly clear 30 - - - -
16/08:30pm 16.3 SSE 4 4 1020.2 - 0.0 - Partly cloudy 10 - - - -
16/08:00pm 16.3 S 4 5 1020.1 - 0.0 - Partly cloudy 10 - - - -
16/07:30pm 16.7 SSW 3 4 1019.7 - 0.0 - Partly cloudy 10 - - - -
16/07:00pm 17.6 SSW 3 4 1019.5 - 0.0 - - 10 - - - -
16/06:30pm 18.3 SSW 2 3 1019.3 - 0.0 - - 10 - - - -
16/06:00pm 19.4 SW 3 4 1019.2 S 0.0 Fine Mostly clear 30 - - - -
16/05:30pm 20.2 SW 5 6 1019.1 - 0.0 - Partly cloudy 10 - - - -
16/05:00pm 21.2 SW 4 5 1018.9 - 0.0 - Partly cloudy 10 - - - -
16/04:30pm 20.8 SW 4 5 1018.9 - 0.0 - Partly cloudy 10 - - - -
16/04:00pm 21.4 W 5 7 1018.8 - 0.0 - Partly cloudy 10 - - - -
16/03:30pm 22.7 WSW 4 6 1018.7 - 0.0 - Partly cloudy 10 - - - -
16/03:00pm 21.9 W 4 8 1018.8 R 0.0 Fine Partly cloudy 30 - - - -
16/02:30pm 22.2 W 5 8 1019.3 - 0.0 - - 10 - - - -
16/02:00pm 21.8 SW 6 9 1019.1 - 0.0 - - 10 - - - -
16/01:30pm 21.3 WSW 7 9 1019.2 - 0.0 - - 10 - - - -
16/01:00pm 21.2 WNW 6 9 1019.3 - 0.0 - - 10 - - - -
16/12:30pm 20.7 WSW 7 8 1019.8 - 0.0 - - 10 - - - -

Other Formats:

Comma delimited format used in spreadsheet applications
http://www.bom.gov.au/fwo/IDS60701/IDS60701.94672.axf

JavaScript Object Notation format (JSON) in row-major order
http://www.bom.gov.au/fwo/IDS60701/IDS60701.94672.json